Time;durP1;ratioP1;P1;durP2;ratioP2;P2;SDS_P1;SDS_P2;PMS_P1;PMS_P2;Temp;Humidity;BMP_temperature;BMP_pressure;BME280_temperature;BME280_humidity;BME280_pressure;Samples;Min_cycle;Max_cycle;Signal;HPM_P1;HPM_P2
2022/08/24 00:00:24;;;;;;;;;;;;;;;;;;5080672;28;20011;-52
2022/08/24 00:02:50;;;;;;;;;;;;;;;;;;5072580;28;19916;-56
2022/08/24 00:05:15;;;;;;;;;;;;;;;;;;5074318;28;20347;-56
2022/08/24 00:07:40;;;;;;;;;;;;;;;;;;5081017;28;19916;-55
2022/08/24 00:10:05;;;;;;;;;;;;;;;;;;5075639;28;19912;-52
2022/08/24 00:12:31;;;;;;;;;;;;;;;;;;5082025;28;19927;-55
2022/08/24 00:14:56;;;;;;;;;;;;;;;;;;5091529;28;20693;-55
2022/08/24 00:17:24;;;;;;;;;;;;;;;;;;5078972;28;19920;-53
2022/08/24 00:19:49;;;;;;;;;;;;;;;;;;5083145;28;19957;-53
2022/08/24 00:22:15;;;;;;;;;;;;;;;;;;5078639;28;20402;-54
2022/08/24 00:24:40;;;;;;;;;;;;;;;;;;5083154;28;19927;-52
2022/08/24 00:27:05;;;;;;;;;;;;;;;;;;5077962;28;19924;-53
2022/08/24 00:29:32;;;;;;;;;;;;;;;;;;5077507;28;19927;-54
2022/08/24 00:31:58;;;;;;;;;;;;;;;;;;5099750;28;19913;-54
2022/08/24 00:34:24;;;;;;;;;;;;;;;;;;5076877;28;19920;-52
2022/08/24 00:36:49;;;;;;;;;;;;;;;;;;5086394;28;19923;-53
2022/08/24 00:39:14;;;;;;;;;;;;;;;;;;5096517;28;20340;-56
2022/08/24 00:41:40;;;;;;;;;;;;;;;;;;5093544;28;19962;-54
2022/08/24 00:44:05;;;;;;;;;;;;;;;;;;5079766;28;20237;-53
2022/08/24 00:46:30;;;;;;;;;;;;;;;;;;5057418;28;19931;-55
2022/08/24 00:48:55;;;;;;;;;;;;;;;;;;5098071;28;20394;-54
2022/08/24 00:51:21;;;;;;;;;;;;;;;;;;5076958;28;20699;-53
2022/08/24 00:53:47;;;;;;;;;;;;;;;;;;5078676;28;22320;-54
2022/08/24 00:56:12;;;;;;;;;;;;;;;;;;5083080;28;20432;-52
2022/08/24 00:58:37;;;;;;;;;;;;;;;;;;5080956;28;20003;-55
2022/08/24 01:01:02;;;;;;;;;;;;;;;;;;5084650;28;20694;-54
2022/08/24 01:03:28;;;;;;;;;;;;;;;;;;5075750;28;19926;-55
2022/08/24 01:05:53;;;;;;;;;;;;;;;;;;5096591;28;19926;-56
2022/08/24 01:08:22;;;;;;;;;;;;;;;;;;5098535;28;20619;-55
2022/08/24 01:10:47;;;;;;;;;;;;;;;;;;5079886;28;19958;-54
2022/08/24 01:13:13;;;;;;;;;;;;;;;;;;5084778;28;19963;-54
2022/08/24 01:15:38;;;;;;;;;;;;;;;;;;5074545;28;20395;-57
2022/08/24 01:20:47;;;;;;;;;;;;;;;;;;5078324;28;20109;-52
2022/08/24 01:23:13;;;;;;;;;;;;;;;;;;5074125;28;20163;-53
2022/08/24 01:25:38;;;;;;;;;;;;;;;;;;5094334;28;20040;-53
2022/08/24 01:28:03;;;;;;;;;;;;;;;;;;5084008;28;19963;-54
2022/08/24 01:30:28;;;;;;;;;;;;;;;;;;5058257;28;19929;-57
2022/08/24 01:32:54;;;;;;;;;;;;;;;;;;5073703;28;20364;-57
2022/08/24 01:35:19;;;;;;;;;;;;;;;;;;5075630;28;20423;-55
2022/08/24 01:37:44;;;;;;;;;;;;;;;;;;5075313;28;20284;-55
2022/08/24 01:40:09;;;;;;;;;;;;;;;;;;5078974;28;19955;-51
2022/08/24 01:42:35;;;;;;;;;;;;;;;;;;5079900;27;21501;-55
2022/08/24 01:45:00;;;;;;;;;;;;;;;;;;5086076;28;20461;-56
2022/08/24 01:47:25;;;;;;;;;;;;;;;;;;5079463;28;19920;-56
2022/08/24 01:49:50;;;;;;;;;;;;;;;;;;5095755;28;20356;-56
2022/08/24 01:52:19;;;;;;;;;;;;;;;;;;5091603;28;19924;-54
2022/08/24 01:54:48;;;;;;;;;;;;;;;;;;5093862;28;19966;-52
2022/08/24 01:57:14;;;;;;;;;;;;;;;;;;5099770;28;19919;-57
2022/08/24 01:59:39;;;;;;;;;;;;;;;;;;5082810;28;19927;-55
2022/08/24 02:02:05;;;;;;;;;;;;;;;;;;5095903;28;20015;-58
2022/08/24 02:04:30;;;;;;;;;;;;;;;;;;5080117;28;20824;-56
2022/08/24 02:06:55;;;;;;;;;;;;;;;;;;5093731;28;20583;-54
2022/08/24 02:09:20;;;;;;;;;;;;;;;;;;5084678;28;19923;-55
2022/08/24 02:11:48;;;;;;;;;;;;;;;;;;5095971;28;19950;-56
2022/08/24 02:14:13;;;;;;;;;;;;;;;;;;5078058;28;20011;-58
2022/08/24 02:16:38;;;;;;;;;;;;;;;;;;5082255;28;20494;-52
2022/08/24 02:19:04;;;;;;;;;;;;;;;;;;5091812;28;20350;-55
2022/08/24 02:21:30;;;;;;;;;;;;;;;;;;5096323;27;19974;-56
2022/08/24 02:23:55;;;;;;;;;;;;;;;;;;5077493;28;20376;-54
2022/08/24 02:26:20;;;;;;;;;;;;;;;;;;5088940;28;19929;-55
2022/08/24 02:28:45;;;;;;;;;;;;;;;;;;5096853;28;19920;-54
2022/08/24 02:31:11;;;;;;;;;;;;;;;;;;5077847;28;19923;-55
2022/08/24 02:33:37;;;;;;;;;;;;;;;;;;5081673;28;19920;-54
2022/08/24 02:36:03;;;;;;;;;;;;;;;;;;5078735;28;20492;-56
2022/08/24 02:38:29;;;;;;;;;;;;;;;;;;5078368;28;19924;-55
2022/08/24 02:40:55;;;;;;;;;;;;;;;;;;5084511;28;19920;-54
2022/08/24 02:43:21;;;;;;;;;;;;;;;;;;5077947;28;19968;-56
2022/08/24 02:45:46;;;;;;;;;;;;;;;;;;5098851;28;19920;-55
2022/08/24 02:48:12;;;;;;;;;;;;;;;;;;5060159;28;20295;-56
2022/08/24 02:50:37;;;;;;;;;;;;;;;;;;5092578;28;19920;-55
2022/08/24 02:53:02;;;;;;;;;;;;;;;;;;5083698;28;19916;-56
2022/08/24 02:55:27;;;;;;;;;;;;;;;;;;5077608;28;19927;-53
2022/08/24 02:57:52;;;;;;;;;;;;;;;;;;5082610;28;19927;-52
2022/08/24 03:00:18;;;;;;;;;;;;;;;;;;5088801;28;20003;-55
2022/08/24 03:02:48;;;;;;;;;;;;;;;;;;5079517;28;19977;-56
2022/08/24 03:05:14;;;;;;;;;;;;;;;;;;5097378;28;19970;-50
2022/08/24 03:07:40;;;;;;;;;;;;;;;;;;5092397;28;20003;-55
2022/08/24 03:10:05;;;;;;;;;;;;;;;;;;5097648;28;20003;-55
2022/08/24 03:12:30;;;;;;;;;;;;;;;;;;5077049;28;19973;-55
2022/08/24 03:14:55;;;;;;;;;;;;;;;;;;5072412;28;19916;-55
2022/08/24 03:17:22;;;;;;;;;;;;;;;;;;5097463;28;19912;-54
2022/08/24 03:19:47;;;;;;;;;;;;;;;;;;5074576;28;19951;-52
2022/08/24 03:22:13;;;;;;;;;;;;;;;;;;5097825;27;19956;-56
2022/08/24 03:24:38;;;;;;;;;;;;;;;;;;5092310;28;20154;-55
2022/08/24 03:27:04;;;;;;;;;;;;;;;;;;5078903;28;20234;-52
2022/08/24 03:29:31;;;;;;;;;;;;;;;;;;5080982;28;20410;-53
2022/08/24 03:31:57;;;;;;;;;;;;;;;;;;5069722;28;19917;-54
2022/08/24 03:34:25;;;;;;;;;;;;;;;;;;5083776;28;19920;-52
2022/08/24 03:36:50;;;;;;;;;;;;;;;;;;5089616;28;19916;-54
2022/08/24 03:39:15;;;;;;;;;;;;;;;;;;5076390;28;19923;-55
2022/08/24 03:41:40;;;;;;;;;;;;;;;;;;5079673;28;19920;-55
2022/08/24 03:44:06;;;;;;;;;;;;;;;;;;5087695;28;19919;-52
2022/08/24 03:46:31;;;;;;;;;;;;;;;;;;5078682;28;20382;-54
2022/08/24 03:48:56;;;;;;;;;;;;;;;;;;5075062;28;19955;-53
2022/08/24 03:51:22;;;;;;;;;;;;;;;;;;5086435;28;20340;-57
2022/08/24 03:53:50;;;;;;;;;;;;;;;;;;5082744;28;19955;-55
2022/08/24 03:56:17;;;;;;;;;;;;;;;;;;5088695;28;20366;-53
2022/08/24 03:58:43;;;;;;;;;;;;;;;;;;5078508;28;19920;-56
2022/08/24 04:01:09;;;;;;;;;;;;;;;;;;5076333;28;19918;-57
2022/08/24 04:03:34;;;;;;;;;;;;;;;;;;5073427;28;20018;-55
2022/08/24 04:06:00;;;;;;;;;;;;;;;;;;5082556;28;20011;-55
2022/08/24 04:08:25;;;;;;;;;;;;;;;;;;5076373;28;20448;-54
2022/08/24 04:10:53;;;;;;;;;;;;;;;;;;5096850;28;19962;-54
2022/08/24 04:13:18;;;;;;;;;;;;;;;;;;5090740;28;19920;-52
2022/08/24 04:15:43;;;;;;;;;;;;;;;;;;5076103;28;19962;-54
2022/08/24 04:18:08;;;;;;;;;;;;;;;;;;5064212;28;19959;-57
2022/08/24 04:20:34;;;;;;;;;;;;;;;;;;5076183;28;20034;-55
2022/08/24 04:23:00;;;;;;;;;;;;;;;;;;5099739;28;20257;-52
2022/08/24 04:25:25;;;;;;;;;;;;;;;;;;5074508;28;19920;-53
2022/08/24 04:27:50;;;;;;;;;;;;;;;;;;5077316;28;19927;-54
2022/08/24 04:30:15;;;;;;;;;;;;;;;;;;5084387;28;20346;-54
2022/08/24 04:32:56;;;;;;;;;;;;;;;;;;5073397;28;19927;-57
2022/08/24 04:35:22;;;;;;;;;;;;;;;;;;5075772;28;20299;-57
2022/08/24 04:37:47;;;;;;;;;;;;;;;;;;5080491;28;20334;-54
2022/08/24 04:40:12;;;;;;;;;;;;;;;;;;5075748;28;19924;-53
2022/08/24 04:42:43;;;;;;;;;;;;;;;;;;5082487;28;19931;-49
2022/08/24 04:45:09;;;;;;;;;;;;;;;;;;5076699;28;19920;-56
2022/08/24 04:47:35;;;;;;;;;;;;;;;;;;5073866;28;20404;-52
2022/08/24 04:50:00;;;;;;;;;;;;;;;;;;5096327;28;19916;-56
2022/08/24 04:52:25;;;;;;;;;;;;;;;;;;5078194;28;19916;-53
2022/08/24 04:54:50;;;;;;;;;;;;;;;;;;5095821;28;19916;-56
2022/08/24 04:57:19;;;;;;;;;;;;;;;;;;5075923;28;19912;-50
2022/08/24 04:59:45;;;;;;;;;;;;;;;;;;5092129;28;20338;-52
2022/08/24 05:02:11;;;;;;;;;;;;;;;;;;5081879;28;19923;-54
2022/08/24 05:04:36;;;;;;;;;;;;;;;;;;5059376;28;19924;-54
2022/08/24 05:07:02;;;;;;;;;;;;;;;;;;5090196;28;19924;-56
2022/08/24 05:09:27;;;;;;;;;;;;;;;;;;5073241;28;19916;-54
2022/08/24 05:11:54;;;;;;;;;;;;;;;;;;5083852;28;19925;-51
2022/08/24 05:14:23;;;;;;;;;;;;;;;;;;5077776;28;19923;-55
2022/08/24 05:16:48;;;;;;;;;;;;;;;;;;5091792;28;19916;-55
2022/08/24 05:19:14;;;;;;;;;;;;;;;;;;5099346;28;20520;-55
2022/08/24 05:21:43;;;;;;;;;;;;;;;;;;5076987;28;19999;-54
2022/08/24 05:24:08;;;;;;;;;;;;;;;;;;5076153;28;19930;-51
2022/08/24 05:26:33;;;;;;;;;;;;;;;;;;5083082;28;20377;-52
2022/08/24 05:28:59;;;;;;;;;;;;;;;;;;5058507;28;19963;-53
2022/08/24 05:31:26;;;;;;;;;;;;;;;;;;5093266;28;20457;-57
2022/08/24 05:33:51;;;;;;;;;;;;;;;;;;5071520;28;20531;-56
2022/08/24 05:36:17;;;;;;;;;;;;;;;;;;5081350;28;19959;-54
2022/08/24 05:38:42;;;;;;;;;;;;;;;;;;5084236;28;19969;-52
2022/08/24 05:41:07;;;;;;;;;;;;;;;;;;5078346;28;20376;-55
2022/08/24 05:43:34;;;;;;;;;;;;;;;;;;5080616;28;20454;-56
2022/08/24 05:45:59;;;;;;;;;;;;;;;;;;5078671;28;20003;-55
2022/08/24 05:48:25;;;;;;;;;;;;;;;;;;5077326;28;19917;-57
2022/08/24 05:51:06;;;;;;;;;;;;;;;;;;5085525;28;20458;-53
2022/08/24 05:53:33;;;;;;;;;;;;;;;;;;5087453;28;19916;-52
2022/08/24 05:56:03;;;;;;;;;;;;;;;;;;5069757;28;19916;-56
2022/08/24 05:58:28;;;;;;;;;;;;;;;;;;5067973;28;19924;-59
2022/08/24 06:00:53;;;;;;;;;;;;;;;;;;5102159;27;19920;-51
2022/08/24 06:03:18;;;;;;;;;;;;;;;;;;5103781;28;19916;-53
2022/08/24 06:05:48;;;;;;;;;;;;;;;;;;5104368;28;19920;-56
2022/08/24 06:08:13;;;;;;;;;;;;;;;;;;5103465;28;20536;-54
2022/08/24 06:10:39;;;;;;;;;;;;;;;;;;5087961;28;19919;-55
2022/08/24 06:13:04;;;;;;;;;;;;;;;;;;5071973;28;19998;-57
2022/08/24 06:15:29;;;;;;;;;;;;;;;;;;5073793;28;19927;-53
2022/08/24 06:17:54;;;;;;;;;;;;;;;;;;5069926;28;19923;-56
2022/08/24 06:20:20;;;;;;;;;;;;;;;;;;5060453;28;19920;-54
2022/08/24 06:22:45;;;;;;;;;;;;;;;;;;5103199;28;19915;-56
2022/08/24 06:27:54;;;;;;;;;;;;;;;;;;5069100;28;19920;-56
2022/08/24 06:30:20;;;;;;;;;;;;;;;;;;5086225;28;19974;-53
2022/08/24 06:33:20;;;;;;;;;;;;;;;;;;5061188;28;19920;-57
2022/08/24 06:35:49;;;;;;;;;;;;;;;;;;5068325;28;19919;-57
2022/08/24 06:38:14;;;;;;;;;;;;;;;;;;5064745;28;19973;-57
2022/08/24 06:40:41;;;;;;;;;;;;;;;;;;5069751;28;19923;-56
2022/08/24 06:43:07;;;;;;;;;;;;;;;;;;5065397;28;20066;-56
2022/08/24 06:45:42;;;;;;;;;;;;;;;;;;5064568;28;19927;-55
2022/08/24 06:48:07;;;;;;;;;;;;;;;;;;5056581;28;19920;-54
2022/08/24 06:50:33;;;;;;;;;;;;;;;;;;5101042;28;20372;-56
2022/08/24 06:52:59;;;;;;;;;;;;;;;;;;5100660;28;19916;-56
2022/08/24 06:55:24;;;;;;;;;;;;;;;;;;5066191;28;20544;-53
2022/08/24 06:57:50;;;;;;;;;;;;;;;;;;5085699;28;20011;-54
2022/08/24 07:00:16;;;;;;;;;;;;;;;;;;5084716;28;19923;-56
2022/08/24 07:02:41;;;;;;;;;;;;;;;;;;5099296;28;19958;-58
2022/08/24 07:05:06;;;;;;;;;;;;;;;;;;5066382;28;19916;-57
2022/08/24 07:07:50;;;;;;;;;;;;;;;;;;5084558;28;20342;-55
2022/08/24 07:10:19;;;;;;;;;;;;;;;;;;5100080;28;20368;-56
2022/08/24 07:12:45;;;;;;;;;;;;;;;;;;5078595;28;19920;-57
2022/08/24 07:15:12;;;;;;;;;;;;;;;;;;5082142;28;19919;-56
2022/08/24 07:17:37;;;;;;;;;;;;;;;;;;5097872;28;19916;-56
2022/08/24 07:20:02;;;;;;;;;;;;;;;;;;5097447;28;19923;-58
2022/08/24 07:22:46;;;;;;;;;;;;;;;;;;5081852;28;19989;-57
2022/08/24 07:25:12;;;;;;;;;;;;;;;;;;5096738;27;19916;-57
2022/08/24 07:27:38;;;;;;;;;;;;;;;;;;5097374;28;19920;-55
2022/08/24 07:30:06;;;;;;;;;;;;;;;;;;5084960;28;19946;-52
2022/08/24 07:32:34;;;;;;;;;;;;;;;;;;5080693;28;20658;-55
2022/08/24 07:34:59;;;;;;;;;;;;;;;;;;5080989;28;19916;-57
2022/08/24 07:37:24;;;;;;;;;;;;;;;;;;5069345;28;19923;-56
2022/08/24 07:39:49;;;;;;;;;;;;;;;;;;5085447;28;19960;-57
2022/08/24 07:42:16;;;;;;;;;;;;;;;;;;5080554;28;19916;-58
2022/08/24 07:44:43;;;;;;;;;;;;;;;;;;5097148;27;19992;-57
2022/08/24 07:47:08;;;;;;;;;;;;;;;;;;5096465;28;19916;-56
2022/08/24 07:49:33;;;;;;;;;;;;;;;;;;5097636;28;19926;-57
2022/08/24 07:52:00;;;;;;;;;;;;;;;;;;5095464;28;19920;-58
2022/08/24 07:54:27;;;;;;;;;;;;;;;;;;5062470;28;20756;-57
2022/08/24 07:56:52;;;;;;;;;;;;;;;;;;5099236;28;19969;-58
2022/08/24 07:59:18;;;;;;;;;;;;;;;;;;5099893;28;19924;-57
2022/08/24 08:01:43;;;;;;;;;;;;;;;;;;5098581;28;19916;-58
2022/08/24 08:04:09;;;;;;;;;;;;;;;;;;5096891;28;19935;-57
2022/08/24 08:06:35;;;;;;;;;;;;;;;;;;5095299;28;20430;-57
2022/08/24 08:09:03;;;;;;;;;;;;;;;;;;5082287;28;19916;-57
2022/08/24 08:11:29;;;;;;;;;;;;;;;;;;5053920;28;19943;-54
2022/08/24 08:13:57;;;;;;;;;;;;;;;;;;5095505;28;20385;-57
2022/08/24 08:16:22;;;;;;;;;;;;;;;;;;5098314;28;19923;-57
2022/08/24 08:18:48;;;;;;;;;;;;;;;;;;5084189;28;19916;-53
2022/08/24 08:24:15;;;;;;;;;;;;;;;;;;5082115;28;19955;-58
2022/08/24 08:26:41;;;;;;;;;;;;;;;;;;5077097;28;19920;-58
2022/08/24 08:29:26;;;;;;;;;;;;;;;;;;5084154;28;19943;-57
2022/08/24 08:31:52;;;;;;;;;;;;;;;;;;5098468;28;19955;-58
2022/08/24 08:34:18;;;;;;;;;;;;;;;;;;5095916;28;20336;-57
2022/08/24 08:36:44;;;;;;;;;;;;;;;;;;5079278;28;19954;-58
2022/08/24 08:39:11;;;;;;;;;;;;;;;;;;5095717;28;19916;-58
2022/08/24 08:41:36;;;;;;;;;;;;;;;;;;5094988;28;19916;-59
2022/08/24 08:44:10;;;;;;;;;;;;;;;;;;5095506;28;19920;-60
2022/08/24 08:46:35;;;;;;;;;;;;;;;;;;5080953;28;20332;-58
2022/08/24 08:49:15;;;;;;;;;;;;;;;;;;5073506;28;19916;-58
2022/08/24 08:51:40;;;;;;;;;;;;;;;;;;5098442;28;20474;-58
2022/08/24 08:54:05;;;;;;;;;;;;;;;;;;5094890;28;20009;-59
2022/08/24 08:56:31;;;;;;;;;;;;;;;;;;5095917;28;19916;-58
2022/08/24 08:58:56;;;;;;;;;;;;;;;;;;5099285;28;19916;-58
2022/08/24 09:01:23;;;;;;;;;;;;;;;;;;5100468;28;19961;-58
2022/08/24 09:03:49;;;;;;;;;;;;;;;;;;5100001;28;19916;-58
2022/08/24 09:06:33;;;;;;;;;;;;;;;;;;5082576;28;19926;-56
2022/08/24 09:09:01;;;;;;;;;;;;;;;;;;5099558;27;19963;-56
2022/08/24 09:11:31;;;;;;;;;;;;;;;;;;5069103;28;20023;-55
2022/08/24 09:13:57;;;;;;;;;;;;;;;;;;5085624;28;19920;-59
2022/08/24 09:16:37;;;;;;;;;;;;;;;;;;5098992;28;19950;-58
2022/08/24 09:19:04;;;;;;;;;;;;;;;;;;5065707;28;19916;-57
2022/08/24 09:21:29;;;;;;;;;;;;;;;;;;5066248;28;19916;-56
2022/08/24 09:23:54;;;;;;;;;;;;;;;;;;5099605;27;19924;-58
2022/08/24 09:26:19;;;;;;;;;;;;;;;;;;5083899;28;20001;-57
2022/08/24 09:28:47;;;;;;;;;;;;;;;;;;5081800;28;19916;-58
2022/08/24 09:31:13;;;;;;;;;;;;;;;;;;5083681;28;19924;-56
2022/08/24 09:33:38;;;;;;;;;;;;;;;;;;5083385;28;20010;-58
2022/08/24 09:36:03;;;;;;;;;;;;;;;;;;5084645;28;20528;-57
2022/08/24 09:38:29;;;;;;;;;;;;;;;;;;5087037;28;19931;-57
2022/08/24 09:40:54;;;;;;;;;;;;;;;;;;5086094;28;20010;-58
2022/08/24 09:43:19;;;;;;;;;;;;;;;;;;5087409;28;19955;-59
2022/08/24 09:45:44;;;;;;;;;;;;;;;;;;5083439;28;19924;-57
2022/08/24 09:48:10;;;;;;;;;;;;;;;;;;5083087;28;19919;-57
2022/08/24 09:50:35;;;;;;;;;;;;;;;;;;5083445;28;19916;-55
2022/08/24 09:53:00;;;;;;;;;;;;;;;;;;5082079;28;20367;-56
2022/08/24 09:55:25;;;;;;;;;;;;;;;;;;5083261;28;20010;-57
2022/08/24 09:57:51;;;;;;;;;;;;;;;;;;5083951;28;19916;-57
2022/08/24 10:00:19;;;;;;;;;;;;;;;;;;5082869;28;19966;-57
2022/08/24 10:02:45;;;;;;;;;;;;;;;;;;5077805;28;19920;-57
2022/08/24 10:05:10;;;;;;;;;;;;;;;;;;5081120;28;20138;-57
2022/08/24 10:07:35;;;;;;;;;;;;;;;;;;5081283;28;19924;-56
2022/08/24 10:10:00;;;;;;;;;;;;;;;;;;5080362;28;19923;-56
2022/08/24 10:12:26;;;;;;;;;;;;;;;;;;5081709;28;20006;-57
2022/08/24 10:14:51;;;;;;;;;;;;;;;;;;5082097;28;20555;-58
2022/08/24 10:17:18;;;;;;;;;;;;;;;;;;5083106;28;19919;-58
2022/08/24 10:19:43;;;;;;;;;;;;;;;;;;5082556;28;20008;-57
2022/08/24 10:22:08;;;;;;;;;;;;;;;;;;5082162;28;20046;-59
2022/08/24 10:24:33;;;;;;;;;;;;;;;;;;5083271;28;20124;-58
2022/08/24 10:26:58;;;;;;;;;;;;;;;;;;5083257;28;19928;-57
2022/08/24 10:29:24;;;;;;;;;;;;;;;;;;5082724;28;19965;-58
2022/08/24 10:31:49;;;;;;;;;;;;;;;;;;5081992;28;19998;-58
2022/08/24 10:34:14;;;;;;;;;;;;;;;;;;5082995;28;19920;-57
2022/08/24 10:36:39;;;;;;;;;;;;;;;;;;5082741;28;19919;-58
2022/08/24 10:41:49;;;;;;;;;;;;;;;;;;5082175;28;20465;-58
2022/08/24 10:44:14;;;;;;;;;;;;;;;;;;5082382;28;19924;-59
2022/08/24 10:46:39;;;;;;;;;;;;;;;;;;5096946;28;19920;-57
2022/08/24 10:49:04;;;;;;;;;;;;;;;;;;5097280;28;19920;-56
2022/08/24 10:51:29;;;;;;;;;;;;;;;;;;5081964;28;19916;-56
2022/08/24 10:53:55;;;;;;;;;;;;;;;;;;5070735;28;19973;-57
2022/08/24 10:56:21;;;;;;;;;;;;;;;;;;5081625;28;20022;-56
2022/08/24 10:58:46;;;;;;;;;;;;;;;;;;5081729;28;19916;-56
2022/08/24 11:01:11;;;;;;;;;;;;;;;;;;5098001;28;20389;-58
2022/08/24 11:03:36;;;;;;;;;;;;;;;;;;5082749;28;19946;-57
2022/08/24 11:06:01;;;;;;;;;;;;;;;;;;5081905;28;19973;-58
2022/08/24 11:08:26;;;;;;;;;;;;;;;;;;5083259;28;20381;-58
2022/08/24 11:10:52;;;;;;;;;;;;;;;;;;5083714;28;20002;-58
2022/08/24 11:13:17;;;;;;;;;;;;;;;;;;5085762;28;19959;-57
2022/08/24 11:15:42;;;;;;;;;;;;;;;;;;5082774;28;20509;-58
2022/08/24 11:18:07;;;;;;;;;;;;;;;;;;5082250;28;19912;-58
2022/08/24 11:20:33;;;;;;;;;;;;;;;;;;5081272;28;19916;-57
2022/08/24 11:22:58;;;;;;;;;;;;;;;;;;5081739;28;19920;-58
2022/08/24 11:25:23;;;;;;;;;;;;;;;;;;5081009;28;19920;-57
2022/08/24 11:27:49;;;;;;;;;;;;;;;;;;5096783;28;20037;-58
2022/08/24 11:30:14;;;;;;;;;;;;;;;;;;5082312;28;19920;-58
2022/08/24 11:32:39;;;;;;;;;;;;;;;;;;5066407;28;20889;-58
2022/08/24 11:35:04;;;;;;;;;;;;;;;;;;5081503;28;20392;-59
2022/08/24 11:37:29;;;;;;;;;;;;;;;;;;5081347;28;19938;-59
2022/08/24 11:39:55;;;;;;;;;;;;;;;;;;5081749;28;20374;-58
2022/08/24 11:42:20;;;;;;;;;;;;;;;;;;5081703;28;20296;-58
2022/08/24 11:44:45;;;;;;;;;;;;;;;;;;5084219;28;20457;-59
2022/08/24 11:47:11;;;;;;;;;;;;;;;;;;5081373;28;20379;-59
2022/08/24 11:49:36;;;;;;;;;;;;;;;;;;5080940;28;19916;-57
2022/08/24 11:52:01;;;;;;;;;;;;;;;;;;5083110;28;19963;-58
2022/08/24 11:54:26;;;;;;;;;;;;;;;;;;5081429;28;19969;-57
2022/08/24 11:56:51;;;;;;;;;;;;;;;;;;5082146;28;19980;-58
2022/08/24 11:59:17;;;;;;;;;;;;;;;;;;5083614;28;19920;-57
2022/08/24 12:01:43;;;;;;;;;;;;;;;;;;5081344;28;19916;-58
2022/08/24 12:04:08;;;;;;;;;;;;;;;;;;5080338;28;20364;-58
2022/08/24 12:06:34;;;;;;;;;;;;;;;;;;5081947;28;20018;-58
2022/08/24 12:08:59;;;;;;;;;;;;;;;;;;5082368;28;19916;-58
2022/08/24 12:11:24;;;;;;;;;;;;;;;;;;5081076;28;20003;-59
2022/08/24 12:13:51;;;;;;;;;;;;;;;;;;5081550;28;19916;-58
2022/08/24 12:16:16;;;;;;;;;;;;;;;;;;5081249;28;19923;-58
2022/08/24 12:18:42;;;;;;;;;;;;;;;;;;5081202;28;19916;-58
2022/08/24 12:21:09;;;;;;;;;;;;;;;;;;5095304;28;19998;-59
2022/08/24 12:23:34;;;;;;;;;;;;;;;;;;5081219;28;19916;-59
2022/08/24 12:26:03;;;;;;;;;;;;;;;;;;5080762;28;19951;-59
2022/08/24 12:28:28;;;;;;;;;;;;;;;;;;5081247;28;19976;-59
2022/08/24 12:30:53;;;;;;;;;;;;;;;;;;5081217;28;20234;-59
2022/08/24 12:33:18;;;;;;;;;;;;;;;;;;5083712;28;20585;-59
2022/08/24 12:35:44;;;;;;;;;;;;;;;;;;5099740;28;19923;-60
2022/08/24 12:38:09;;;;;;;;;;;;;;;;;;5085347;28;19917;-58
2022/08/24 12:40:34;;;;;;;;;;;;;;;;;;5084723;28;20117;-59
2022/08/24 12:42:59;;;;;;;;;;;;;;;;;;5084306;28;19989;-59
2022/08/24 12:45:24;;;;;;;;;;;;;;;;;;5085411;28;20645;-59
2022/08/24 12:47:50;;;;;;;;;;;;;;;;;;5085156;28;20006;-60
2022/08/24 12:50:15;;;;;;;;;;;;;;;;;;5083227;28;19926;-59
2022/08/24 12:52:40;;;;;;;;;;;;;;;;;;5084844;28;19962;-59
2022/08/24 12:55:05;;;;;;;;;;;;;;;;;;5084778;28;19923;-59
2022/08/24 12:57:31;;;;;;;;;;;;;;;;;;5083470;28;19919;-58
2022/08/24 12:59:57;;;;;;;;;;;;;;;;;;5087237;28;19915;-59
2022/08/24 13:02:22;;;;;;;;;;;;;;;;;;5085531;28;19912;-59
2022/08/24 13:04:47;;;;;;;;;;;;;;;;;;5082588;28;20639;-59
2022/08/24 13:07:13;;;;;;;;;;;;;;;;;;5083445;28;20003;-59
2022/08/24 13:09:39;;;;;;;;;;;;;;;;;;5085633;28;20519;-59
2022/08/24 13:12:04;;;;;;;;;;;;;;;;;;5082655;28;20006;-59
2022/08/24 13:14:29;;;;;;;;;;;;;;;;;;5083317;28;19916;-60
2022/08/24 13:16:55;;;;;;;;;;;;;;;;;;5085024;28;20485;-59
2022/08/24 13:19:20;;;;;;;;;;;;;;;;;;5085933;28;20668;-59
2022/08/24 13:21:45;;;;;;;;;;;;;;;;;;5085151;28;20528;-59
2022/08/24 13:24:11;;;;;;;;;;;;;;;;;;5086297;28;20193;-59
2022/08/24 13:26:36;;;;;;;;;;;;;;;;;;5086083;28;19985;-59
2022/08/24 13:29:02;;;;;;;;;;;;;;;;;;5085938;28;20423;-59
2022/08/24 13:31:27;;;;;;;;;;;;;;;;;;5101546;28;19931;-59
2022/08/24 13:33:52;;;;;;;;;;;;;;;;;;5085490;28;20420;-59
2022/08/24 13:36:17;;;;;;;;;;;;;;;;;;5085058;28;19916;-59
2022/08/24 13:38:43;;;;;;;;;;;;;;;;;;5085866;28;19923;-59
2022/08/24 13:41:08;;;;;;;;;;;;;;;;;;5100507;28;19927;-59
2022/08/24 13:43:33;;;;;;;;;;;;;;;;;;5084914;28;19960;-59
2022/08/24 13:45:59;;;;;;;;;;;;;;;;;;5084665;28;20015;-59
2022/08/24 13:48:24;;;;;;;;;;;;;;;;;;5085925;28;19968;-59
2022/08/24 13:50:49;;;;;;;;;;;;;;;;;;5084644;28;19934;-58
2022/08/24 13:53:15;;;;;;;;;;;;;;;;;;5085815;28;20003;-59
2022/08/24 13:55:40;;;;;;;;;;;;;;;;;;5085808;28;20347;-59
2022/08/24 13:58:05;;;;;;;;;;;;;;;;;;5085205;28;19963;-58
2022/08/24 14:00:31;;;;;;;;;;;;;;;;;;5073044;28;19926;-58
2022/08/24 14:02:57;;;;;;;;;;;;;;;;;;5084530;28;19959;-59
2022/08/24 14:05:22;;;;;;;;;;;;;;;;;;5087150;28;20024;-59
2022/08/24 14:07:47;;;;;;;;;;;;;;;;;;5085825;28;19924;-58
2022/08/24 14:10:12;;;;;;;;;;;;;;;;;;5085452;28;19947;-59
2022/08/24 14:12:38;;;;;;;;;;;;;;;;;;5085385;28;19955;-59
2022/08/24 14:15:03;;;;;;;;;;;;;;;;;;5084873;28;19916;-59
2022/08/24 14:20:12;;;;;;;;;;;;;;;;;;5084212;28;20083;-58
2022/08/24 14:22:38;;;;;;;;;;;;;;;;;;5084523;28;20372;-59
2022/08/24 14:25:03;;;;;;;;;;;;;;;;;;5085209;28;20304;-59
2022/08/24 14:27:28;;;;;;;;;;;;;;;;;;5085100;28;19920;-58
2022/08/24 14:29:53;;;;;;;;;;;;;;;;;;5085695;28;19916;-59
2022/08/24 14:32:18;;;;;;;;;;;;;;;;;;5084461;28;20121;-59
2022/08/24 14:34:44;;;;;;;;;;;;;;;;;;5083799;28;20240;-59
2022/08/24 14:37:10;;;;;;;;;;;;;;;;;;5085051;28;20332;-60
2022/08/24 14:39:35;;;;;;;;;;;;;;;;;;5082833;28;19926;-59
2022/08/24 14:42:00;;;;;;;;;;;;;;;;;;5084392;28;19922;-59
2022/08/24 14:44:25;;;;;;;;;;;;;;;;;;5084708;28;19920;-59
2022/08/24 14:46:50;;;;;;;;;;;;;;;;;;5084533;28;19916;-59
2022/08/24 14:49:16;;;;;;;;;;;;;;;;;;5084364;28;19916;-59
2022/08/24 14:51:41;;;;;;;;;;;;;;;;;;5083729;28;19916;-59
2022/08/24 14:54:06;;;;;;;;;;;;;;;;;;5084127;28;19923;-59
2022/08/24 14:56:31;;;;;;;;;;;;;;;;;;5083905;28;20358;-60
2022/08/24 14:58:56;;;;;;;;;;;;;;;;;;5083295;28;19916;-59
2022/08/24 15:01:23;;;;;;;;;;;;;;;;;;5088688;28;19916;-58
2022/08/24 15:03:48;;;;;;;;;;;;;;;;;;5083914;28;19916;-60
2022/08/24 15:06:13;;;;;;;;;;;;;;;;;;5083805;28;19931;-60
2022/08/24 15:08:41;;;;;;;;;;;;;;;;;;5088675;28;19916;-59
2022/08/24 15:11:07;;;;;;;;;;;;;;;;;;5084783;28;19926;-59
2022/08/24 15:13:32;;;;;;;;;;;;;;;;;;5083842;28;20280;-59
2022/08/24 15:15:57;;;;;;;;;;;;;;;;;;5083760;28;19953;-59
2022/08/24 15:18:23;;;;;;;;;;;;;;;;;;5078851;28;20018;-59
2022/08/24 15:20:49;;;;;;;;;;;;;;;;;;5081274;28;20387;-59
2022/08/24 15:23:14;;;;;;;;;;;;;;;;;;5081220;28;19920;-59
2022/08/24 15:25:39;;;;;;;;;;;;;;;;;;5081270;28;19920;-60
2022/08/24 15:28:06;;;;;;;;;;;;;;;;;;5083196;28;20062;-59
2022/08/24 15:30:32;;;;;;;;;;;;;;;;;;5081760;28;19916;-59
2022/08/24 15:32:57;;;;;;;;;;;;;;;;;;5082726;28;19923;-56
2022/08/24 15:35:22;;;;;;;;;;;;;;;;;;5080989;28;19927;-59
2022/08/24 15:37:48;;;;;;;;;;;;;;;;;;5097028;28;19955;-59
2022/08/24 15:40:13;;;;;;;;;;;;;;;;;;5075035;28;19922;-59
2022/08/24 15:42:38;;;;;;;;;;;;;;;;;;5080833;28;19967;-59
2022/08/24 15:45:04;;;;;;;;;;;;;;;;;;5080936;28;20388;-59
2022/08/24 15:47:30;;;;;;;;;;;;;;;;;;5081904;28;19927;-59
2022/08/24 15:49:56;;;;;;;;;;;;;;;;;;5086480;28;19920;-58
2022/08/24 15:52:22;;;;;;;;;;;;;;;;;;5083695;28;19923;-58
2022/08/24 15:54:47;;;;;;;;;;;;;;;;;;5084971;28;19916;-57
2022/08/24 15:57:13;;;;;;;;;;;;;;;;;;5080434;28;20415;-58
2022/08/24 15:59:39;;;;;;;;;;;;;;;;;;5082840;28;20436;-58
2022/08/24 16:04:52;;;;;;;;;;;;;;;;;;5080218;28;19920;-58
2022/08/24 16:07:17;;;;;;;;;;;;;;;;;;5080809;28;19920;-58
2022/08/24 16:09:43;;;;;;;;;;;;;;;;;;5080104;28;19916;-58
2022/08/24 16:12:08;;;;;;;;;;;;;;;;;;5081101;28;19927;-58
2022/08/24 16:14:34;;;;;;;;;;;;;;;;;;5079807;28;19923;-58
2022/08/24 16:17:00;;;;;;;;;;;;;;;;;;5078612;28;19927;-58
2022/08/24 16:19:25;;;;;;;;;;;;;;;;;;5081172;28;19938;-58
2022/08/24 16:21:50;;;;;;;;;;;;;;;;;;5095318;28;19920;-59
2022/08/24 16:24:16;;;;;;;;;;;;;;;;;;5082733;28;19920;-58
2022/08/24 16:26:41;;;;;;;;;;;;;;;;;;5083644;28;19920;-58
2022/08/24 16:29:06;;;;;;;;;;;;;;;;;;5083517;28;20386;-58
2022/08/24 16:31:31;;;;;;;;;;;;;;;;;;5081906;28;19941;-58
2022/08/24 16:33:57;;;;;;;;;;;;;;;;;;5081919;28;19971;-58
2022/08/24 16:36:22;;;;;;;;;;;;;;;;;;5082831;28;19916;-59
2022/08/24 16:38:47;;;;;;;;;;;;;;;;;;5082479;28;19992;-59
2022/08/24 16:41:13;;;;;;;;;;;;;;;;;;5082292;28;19919;-58
2022/08/24 16:43:38;;;;;;;;;;;;;;;;;;5082083;28;19916;-59
2022/08/24 16:46:03;;;;;;;;;;;;;;;;;;5083651;28;20519;-59
2022/08/24 16:48:28;;;;;;;;;;;;;;;;;;5083098;28;19920;-59
2022/08/24 16:50:55;;;;;;;;;;;;;;;;;;5082627;28;19928;-58
2022/08/24 16:53:20;;;;;;;;;;;;;;;;;;5080375;28;20347;-59